sensor_id;sensor_type;location;lat;lon;timestamp;pressure;altitude;pressure_sealevel;temperature;humidity
9439;BME280;5176;42.622;25.386;2023-05-23T00:01:48;96919.75;;;13.31;100.00
9439;BME280;5176;42.622;25.386;2023-05-23T00:04:19;96910.38;;;13.39;100.00
9439;BME280;5176;42.622;25.386;2023-05-23T00:06:46;96912.28;;;13.48;100.00
9439;BME280;5176;42.622;25.386;2023-05-23T00:09:15;96919.41;;;13.57;100.00
9439;BME280;5176;42.622;25.386;2023-05-23T00:11:42;96914.97;;;13.57;100.00
9439;BME280;5176;42.622;25.386;2023-05-23T00:14:10;96912.75;;;13.53;100.00
9439;BME280;5176;42.622;25.386;2023-05-23T00:16:39;96907.59;;;13.51;100.00
9439;BME280;5176;42.622;25.386;2023-05-23T00:19:09;96906.16;;;13.58;100.00
9439;BME280;5176;42.622;25.386;2023-05-23T00:21:39;96902.28;;;13.62;100.00
9439;BME280;5176;42.622;25.386;2023-05-23T00:24:08;96899.53;;;13.64;100.00
9439;BME280;5176;42.622;25.386;2023-05-23T00:26:35;96891.75;;;13.62;100.00
9439;BME280;5176;42.622;25.386;2023-05-23T00:29:03;96892.00;;;13.59;100.00
9439;BME280;5176;42.622;25.386;2023-05-23T00:31:30;96895.13;;;13.53;100.00
9439;BME280;5176;42.622;25.386;2023-05-23T00:33:57;96881.28;;;13.51;100.00
9439;BME280;5176;42.622;25.386;2023-05-23T00:36:26;96889.19;;;13.51;100.00
9439;BME280;5176;42.622;25.386;2023-05-23T00:38:53;96890.38;;;13.47;100.00
9439;BME280;5176;42.622;25.386;2023-05-23T00:41:21;96890.63;;;13.44;100.00
9439;BME280;5176;42.622;25.386;2023-05-23T00:43:51;96891.13;;;13.38;100.00
9439;BME280;5176;42.622;25.386;2023-05-23T00:46:19;96893.38;;;13.43;100.00
9439;BME280;5176;42.622;25.386;2023-05-23T00:48:46;96891.81;;;13.40;100.00
9439;BME280;5176;42.622;25.386;2023-05-23T00:51:13;96899.47;;;13.43;100.00
9439;BME280;5176;42.622;25.386;2023-05-23T00:53:42;96889.09;;;13.30;100.00
9439;BME280;5176;42.622;25.386;2023-05-23T00:56:09;96886.56;;;13.29;100.00
9439;BME280;5176;42.622;25.386;2023-05-23T00:58:39;96885.38;;;13.33;100.00
9439;BME280;5176;42.622;25.386;2023-05-23T01:01:07;96885.88;;;13.38;100.00
9439;BME280;5176;42.622;25.386;2023-05-23T01:03:34;96875.06;;;13.41;100.00
9439;BME280;5176;42.622;25.386;2023-05-23T01:06:02;96880.94;;;13.45;100.00
9439;BME280;5176;42.622;25.386;2023-05-23T01:08:29;96882.72;;;13.44;100.00
9439;BME280;5176;42.622;25.386;2023-05-23T01:11:01;96871.47;;;13.42;100.00
9439;BME280;5176;42.622;25.386;2023-05-23T01:13:37;96885.81;;;13.49;100.00
9439;BME280;5176;42.622;25.386;2023-05-23T01:16:10;96874.31;;;13.50;100.00
9439;BME280;5176;42.622;25.386;2023-05-23T01:18:44;96874.31;;;13.50;100.00
9439;BME280;5176;42.622;25.386;2023-05-23T01:21:16;96870.84;;;13.50;100.00
9439;BME280;5176;42.622;25.386;2023-05-23T01:24:02;96878.75;;;13.50;100.00
9439;BME280;5176;42.622;25.386;2023-05-23T01:26:45;96868.22;;;13.50;100.00
9439;BME280;5176;42.622;25.386;2023-05-23T01:29:23;96867.38;;;13.49;100.00
9439;BME280;5176;42.622;25.386;2023-05-23T01:31:54;96852.53;;;13.48;100.00
9439;BME280;5176;42.622;25.386;2023-05-23T01:34:22;96866.06;;;13.44;100.00
9439;BME280;5176;42.622;25.386;2023-05-23T01:36:53;96867.78;;;13.45;100.00
9439;BME280;5176;42.622;25.386;2023-05-23T01:39:21;96861.78;;;13.43;100.00
9439;BME280;5176;42.622;25.386;2023-05-23T01:41:48;96856.41;;;13.44;100.00
9439;BME280;5176;42.622;25.386;2023-05-23T01:44:16;96860.44;;;13.48;100.00
9439;BME280;5176;42.622;25.386;2023-05-23T01:46:46;96867.16;;;13.52;100.00
9439;BME280;5176;42.622;25.386;2023-05-23T01:49:15;96864.66;;;13.51;100.00
9439;BME280;5176;42.622;25.386;2023-05-23T01:51:45;96854.47;;;13.46;100.00
9439;BME280;5176;42.622;25.386;2023-05-23T01:54:14;96856.41;;;13.44;100.00
9439;BME280;5176;42.622;25.386;2023-05-23T01:56:44;96858.91;;;13.46;100.00
9439;BME280;5176;42.622;25.386;2023-05-23T01:59:12;96842.97;;;13.47;100.00
9439;BME280;5176;42.622;25.386;2023-05-23T02:01:39;96860.22;;;13.51;100.00
9439;BME280;5176;42.622;25.386;2023-05-23T02:04:08;96855.38;;;13.56;100.00
9439;BME280;5176;42.622;25.386;2023-05-23T02:06:35;96842.81;;;13.60;100.00
9439;BME280;5176;42.622;25.386;2023-05-23T02:09:03;96848.66;;;13.63;100.00
9439;BME280;5176;42.622;25.386;2023-05-23T02:11:30;96866.34;;;13.73;100.00
9439;BME280;5176;42.622;25.386;2023-05-23T02:13:58;96862.75;;;13.74;100.00
9439;BME280;5176;42.622;25.386;2023-05-23T02:16:25;96847.91;;;13.73;100.00
9439;BME280;5176;42.622;25.386;2023-05-23T02:18:52;96869.44;;;13.78;100.00
9439;BME280;5176;42.622;25.386;2023-05-23T02:21:22;96868.97;;;13.73;100.00
9439;BME280;5176;42.622;25.386;2023-05-23T02:23:49;96876.63;;;13.76;100.00
9439;BME280;5176;42.622;25.386;2023-05-23T02:26:17;96866.47;;;13.71;100.00
9439;BME280;5176;42.622;25.386;2023-05-23T02:28:44;96872.06;;;13.78;100.00
9439;BME280;5176;42.622;25.386;2023-05-23T02:31:11;96872.66;;;13.81;100.00
9439;BME280;5176;42.622;25.386;2023-05-23T02:33:38;96867.25;;;13.83;100.00
9439;BME280;5176;42.622;25.386;2023-05-23T02:36:06;96858.03;;;13.77;100.00
9439;BME280;5176;42.622;25.386;2023-05-23T02:38:35;96875.22;;;13.72;100.00
9439;BME280;5176;42.622;25.386;2023-05-23T02:41:02;96870.31;;;13.67;100.00
9439;BME280;5176;42.622;25.386;2023-05-23T02:43:30;96866.16;;;13.65;100.00
9439;BME280;5176;42.622;25.386;2023-05-23T02:45:57;96859.91;;;13.66;100.00
9439;BME280;5176;42.622;25.386;2023-05-23T02:48:25;96855.16;;;13.59;100.00
9439;BME280;5176;42.622;25.386;2023-05-23T02:50:52;96857.31;;;13.54;100.00
9439;BME280;5176;42.622;25.386;2023-05-23T02:53:19;96864.25;;;13.55;100.00
9439;BME280;5176;42.622;25.386;2023-05-23T02:55:48;96864.34;;;13.65;100.00
9439;BME280;5176;42.622;25.386;2023-05-23T02:58:15;96862.09;;;13.81;100.00
9439;BME280;5176;42.622;25.386;2023-05-23T03:00:43;96859.28;;;13.94;100.00
9439;BME280;5176;42.622;25.386;2023-05-23T03:03:10;96874.97;;;14.16;100.00
9439;BME280;5176;42.622;25.386;2023-05-23T03:05:37;96866.69;;;14.21;100.00
9439;BME280;5176;42.622;25.386;2023-05-23T03:08:05;96863.72;;;14.35;100.00
9439;BME280;5176;42.622;25.386;2023-05-23T03:10:32;96855.75;;;14.47;100.00
9439;BME280;5176;42.622;25.386;2023-05-23T03:13:01;96863.31;;;14.61;100.00
9439;BME280;5176;42.622;25.386;2023-05-23T03:15:28;96872.81;;;14.73;100.00
9439;BME280;5176;42.622;25.386;2023-05-23T03:17:55;96876.31;;;14.83;100.00
9439;BME280;5176;42.622;25.386;2023-05-23T03:20:22;96864.25;;;14.90;100.00
9439;BME280;5176;42.622;25.386;2023-05-23T03:22:49;96856.50;;;14.89;100.00
9439;BME280;5176;42.622;25.386;2023-05-23T03:25:17;96873.06;;;15.01;100.00
9439;BME280;5176;42.622;25.386;2023-05-23T03:27:44;96864.88;;;15.04;100.00
9439;BME280;5176;42.622;25.386;2023-05-23T03:30:13;96874.78;;;15.11;100.00
9439;BME280;5176;42.622;25.386;2023-05-23T03:32:40;96868.09;;;15.17;100.00
9439;BME280;5176;42.622;25.386;2023-05-23T03:35:08;96879.78;;;15.24;100.00
9439;BME280;5176;42.622;25.386;2023-05-23T03:37:36;96874.81;;;15.31;100.00
9439;BME280;5176;42.622;25.386;2023-05-23T03:40:04;96833.63;;;15.09;100.00
9439;BME280;5176;42.622;25.386;2023-05-23T03:42:32;96872.44;;;15.37;100.00
9439;BME280;5176;42.622;25.386;2023-05-23T03:45:00;96879.72;;;15.45;100.00
9439;BME280;5176;42.622;25.386;2023-05-23T03:47:28;96890.13;;;15.46;100.00
9439;BME280;5176;42.622;25.386;2023-05-23T03:49:56;96884.16;;;15.54;100.00
9439;BME280;5176;42.622;25.386;2023-05-23T03:52:23;96876.94;;;15.56;100.00
9439;BME280;5176;42.622;25.386;2023-05-23T03:54:50;96872.94;;;15.62;100.00
9439;BME280;5176;42.622;25.386;2023-05-23T03:57:18;96872.94;;;15.62;100.00
9439;BME280;5176;42.622;25.386;2023-05-23T03:59:45;96841.03;;;15.44;100.00
9439;BME280;5176;42.622;25.386;2023-05-23T04:02:13;96879.91;;;15.72;100.00
9439;BME280;5176;42.622;25.386;2023-05-23T04:04:41;96879.09;;;15.72;100.00
9439;BME280;5176;42.622;25.386;2023-05-23T04:07:08;96887.53;;;15.75;100.00
9439;BME280;5176;42.622;25.386;2023-05-23T04:09:36;96887.28;;;15.78;100.00
9439;BME280;5176;42.622;25.386;2023-05-23T04:12:03;96887.53;;;15.75;100.00
9439;BME280;5176;42.622;25.386;2023-05-23T04:14:33;96884.91;;;15.75;100.00
9439;BME280;5176;42.622;25.386;2023-05-23T04:17:01;96883.94;;;15.76;100.00
9439;BME280;5176;42.622;25.386;2023-05-23T04:19:28;96899.81;;;15.86;100.00
9439;BME280;5176;42.622;25.386;2023-05-23T04:21:57;96890.06;;;15.87;100.00
9439;BME280;5176;42.622;25.386;2023-05-23T04:24:24;96889.50;;;15.93;100.00
9439;BME280;5176;42.622;25.386;2023-05-23T04:26:52;96898.56;;;16.00;100.00
9439;BME280;5176;42.622;25.386;2023-05-23T04:29:20;96892.13;;;16.02;100.00
9439;BME280;5176;42.622;25.386;2023-05-23T04:31:49;96901.31;;;16.08;100.00
9439;BME280;5176;42.622;25.386;2023-05-23T04:34:16;96906.75;;;16.16;100.00
9439;BME280;5176;42.622;25.386;2023-05-23T04:36:46;96909.50;;;16.24;100.00
9439;BME280;5176;42.622;25.386;2023-05-23T04:39:15;96912.00;;;16.35;100.00
9439;BME280;5176;42.622;25.386;2023-05-23T04:41:42;96913.94;;;16.43;100.00
9439;BME280;5176;42.622;25.386;2023-05-23T04:44:11;96907.81;;;16.52;100.00
9439;BME280;5176;42.622;25.386;2023-05-23T04:46:39;96915.03;;;16.70;100.00
9439;BME280;5176;42.622;25.386;2023-05-23T04:49:06;96920.00;;;16.82;99.52
9439;BME280;5176;42.622;25.386;2023-05-23T04:51:34;96917.72;;;16.97;97.89
9439;BME280;5176;42.622;25.386;2023-05-23T04:54:03;96919.63;;;17.05;98.48
9439;BME280;5176;42.622;25.386;2023-05-23T04:56:31;96923.66;;;17.19;97.44
9439;BME280;5176;42.622;25.386;2023-05-23T04:58:59;96921.22;;;17.25;94.71
9439;BME280;5176;42.622;25.386;2023-05-23T05:01:26;96924.97;;;17.32;94.29
9439;BME280;5176;42.622;25.386;2023-05-23T05:03:54;96929.38;;;17.41;95.67
9439;BME280;5176;42.622;25.386;2023-05-23T05:06:21;96929.47;;;17.50;93.52
9439;BME280;5176;42.622;25.386;2023-05-23T05:08:49;96934.47;;;17.53;92.32
9439;BME280;5176;42.622;25.386;2023-05-23T05:11:16;96921.94;;;17.45;91.85
9439;BME280;5176;42.622;25.386;2023-05-23T05:13:45;96942.72;;;17.50;91.64
9439;BME280;5176;42.622;25.386;2023-05-23T05:16:12;96941.59;;;17.52;92.92
9439;BME280;5176;42.622;25.386;2023-05-23T05:18:39;96948.56;;;17.53;94.98
9439;BME280;5176;42.622;25.386;2023-05-23T05:21:07;96939.88;;;17.61;94.53
9439;BME280;5176;42.622;25.386;2023-05-23T05:23:34;96952.38;;;17.68;91.64
9439;BME280;5176;42.622;25.386;2023-05-23T05:26:02;96950.97;;;17.74;92.02
9439;BME280;5176;42.622;25.386;2023-05-23T05:28:29;96957.50;;;17.80;91.73
9439;BME280;5176;42.622;25.386;2023-05-23T05:30:59;96950.97;;;17.92;93.08
9439;BME280;5176;42.622;25.386;2023-05-23T05:33:29;96959.72;;;18.02;89.23
9439;BME280;5176;42.622;25.386;2023-05-23T05:36:00;96957.44;;;18.07;87.95
9439;BME280;5176;42.622;25.386;2023-05-23T05:38:28;96962.50;;;18.18;88.81
9439;BME280;5176;42.622;25.386;2023-05-23T05:40:55;96959.25;;;18.24;88.47
9439;BME280;5176;42.622;25.386;2023-05-23T05:43:24;96966.16;;;18.17;88.87
9439;BME280;5176;42.622;25.386;2023-05-23T05:45:52;96970.72;;;18.07;88.26
9439;BME280;5176;42.622;25.386;2023-05-23T05:48:21;96980.31;;;18.08;88.77
9439;BME280;5176;42.622;25.386;2023-05-23T05:50:48;96978.34;;;18.10;88.46
9439;BME280;5176;42.622;25.386;2023-05-23T05:53:15;96987.47;;;18.08;88.26
9439;BME280;5176;42.622;25.386;2023-05-23T05:55:43;96982.97;;;18.08;88.94
9439;BME280;5176;42.622;25.386;2023-05-23T05:58:10;96985.31;;;18.11;87.06
9439;BME280;5176;42.622;25.386;2023-05-23T06:00:37;96984.34;;;18.12;86.44
9439;BME280;5176;42.622;25.386;2023-05-23T06:03:06;96988.28;;;18.08;84.57
9439;BME280;5176;42.622;25.386;2023-05-23T06:05:35;96977.97;;;18.05;85.56
9439;BME280;5176;42.622;25.386;2023-05-23T06:08:04;96994.09;;;18.12;86.35
9439;BME280;5176;42.622;25.386;2023-05-23T06:10:31;96980.84;;;18.12;86.42
9439;BME280;5176;42.622;25.386;2023-05-23T06:12:59;96989.94;;;18.09;83.78
9439;BME280;5176;42.622;25.386;2023-05-23T06:15:26;96990.38;;;18.05;84.40
9439;BME280;5176;42.622;25.386;2023-05-23T06:17:53;96988.13;;;18.10;85.80
9439;BME280;5176;42.622;25.386;2023-05-23T06:20:21;96988.81;;;18.12;86.25
9439;BME280;5176;42.622;25.386;2023-05-23T06:22:50;96987.53;;;18.16;85.02
9439;BME280;5176;42.622;25.386;2023-05-23T06:25:17;96986.53;;;18.17;83.83
9439;BME280;5176;42.622;25.386;2023-05-23T06:27:44;96992.22;;;18.22;84.78
9439;BME280;5176;42.622;25.386;2023-05-23T06:30:13;96989.03;;;18.18;80.83
9439;BME280;5176;42.622;25.386;2023-05-23T06:32:40;96989.91;;;18.19;81.39
9439;BME280;5176;42.622;25.386;2023-05-23T06:35:08;96985.34;;;18.29;83.49
9439;BME280;5176;42.622;25.386;2023-05-23T06:37:36;96988.75;;;18.39;83.75
9439;BME280;5176;42.622;25.386;2023-05-23T06:40:07;96988.50;;;18.50;82.53
9439;BME280;5176;42.622;25.386;2023-05-23T06:42:34;96976.97;;;18.60;84.84
9439;BME280;5176;42.622;25.386;2023-05-23T06:45:01;96992.16;;;18.67;80.75
9439;BME280;5176;42.622;25.386;2023-05-23T06:47:29;96989.78;;;18.82;81.29
9439;BME280;5176;42.622;25.386;2023-05-23T06:49:56;97001.03;;;19.02;78.98
9439;BME280;5176;42.622;25.386;2023-05-23T06:52:23;96992.44;;;19.08;79.31
9439;BME280;5176;42.622;25.386;2023-05-23T06:54:50;96993.22;;;19.00;78.86
9439;BME280;5176;42.622;25.386;2023-05-23T06:57:19;96994.97;;;18.92;77.32
9439;BME280;5176;42.622;25.386;2023-05-23T06:59:47;96992.66;;;18.89;77.41
9439;BME280;5176;42.622;25.386;2023-05-23T07:02:14;96996.50;;;18.94;79.00
9439;BME280;5176;42.622;25.386;2023-05-23T07:04:41;97003.69;;;19.02;80.33
9439;BME280;5176;42.622;25.386;2023-05-23T07:07:08;96986.94;;;19.01;79.49
9439;BME280;5176;42.622;25.386;2023-05-23T07:09:36;96960.94;;;18.87;79.48
9439;BME280;5176;42.622;25.386;2023-05-23T07:12:04;96977.34;;;19.09;79.01
9439;BME280;5176;42.622;25.386;2023-05-23T07:14:33;96979.94;;;19.00;75.00
9439;BME280;5176;42.622;25.386;2023-05-23T07:17:03;96965.47;;;18.95;76.65
9439;BME280;5176;42.622;25.386;2023-05-23T07:19:30;96967.66;;;18.99;77.71
9439;BME280;5176;42.622;25.386;2023-05-23T07:21:58;96959.63;;;18.91;76.85
9439;BME280;5176;42.622;25.386;2023-05-23T07:24:25;96957.97;;;18.90;75.57
9439;BME280;5176;42.622;25.386;2023-05-23T07:26:52;96957.44;;;18.87;76.39
9439;BME280;5176;42.622;25.386;2023-05-23T07:29:19;96954.41;;;19.08;76.47
9439;BME280;5176;42.622;25.386;2023-05-23T07:31:48;96950.75;;;19.43;74.51
9439;BME280;5176;42.622;25.386;2023-05-23T07:34:15;96952.59;;;19.84;73.34
9439;BME280;5176;42.622;25.386;2023-05-23T07:36:43;96958.66;;;20.27;73.74
9439;BME280;5176;42.622;25.386;2023-05-23T07:39:10;96951.03;;;20.49;69.55
9439;BME280;5176;42.622;25.386;2023-05-23T07:41:37;96950.38;;;20.47;68.11
9439;BME280;5176;42.622;25.386;2023-05-23T07:44:05;96944.19;;;20.79;73.47
9439;BME280;5176;42.622;25.386;2023-05-23T07:46:34;96952.47;;;21.08;66.33
9439;BME280;5176;42.622;25.386;2023-05-23T07:49:03;96956.41;;;21.37;65.81
9439;BME280;5176;42.622;25.386;2023-05-23T07:51:30;96942.97;;;21.61;64.39
9439;BME280;5176;42.622;25.386;2023-05-23T07:53:58;96956.75;;;21.73;61.55
9439;BME280;5176;42.622;25.386;2023-05-23T07:56:25;96948.59;;;21.97;63.28
9439;BME280;5176;42.622;25.386;2023-05-23T07:58:52;96960.69;;;22.16;62.17
9439;BME280;5176;42.622;25.386;2023-05-23T08:01:20;96943.38;;;22.35;58.48
9439;BME280;5176;42.622;25.386;2023-05-23T08:03:47;96945.19;;;22.57;60.41
9439;BME280;5176;42.622;25.386;2023-05-23T08:06:16;96957.56;;;22.73;61.99
9439;BME280;5176;42.622;25.386;2023-05-23T08:08:43;96952.81;;;22.83;56.08
9439;BME280;5176;42.622;25.386;2023-05-23T08:11:10;96962.28;;;22.94;55.20
9439;BME280;5176;42.622;25.386;2023-05-23T08:13:39;96947.91;;;23.10;54.49
9439;BME280;5176;42.622;25.386;2023-05-23T08:16:07;96951.50;;;23.17;56.45
9439;BME280;5176;42.622;25.386;2023-05-23T08:18:34;96951.50;;;23.32;55.49
9439;BME280;5176;42.622;25.386;2023-05-23T08:21:01;96949.28;;;23.50;54.06
9439;BME280;5176;42.622;25.386;2023-05-23T08:23:30;96936.63;;;23.59;56.39
9439;BME280;5176;42.622;25.386;2023-05-23T08:25:57;96943.94;;;23.35;56.09
9439;BME280;5176;42.622;25.386;2023-05-23T08:28:25;96944.31;;;23.47;53.62
9439;BME280;5176;42.622;25.386;2023-05-23T08:30:52;96932.78;;;23.61;55.37
9439;BME280;5176;42.622;25.386;2023-05-23T08:33:21;96939.78;;;23.48;53.80
9439;BME280;5176;42.622;25.386;2023-05-23T08:35:49;96927.50;;;23.38;54.72
9439;BME280;5176;42.622;25.386;2023-05-23T08:38:16;96928.28;;;23.62;53.48
9439;BME280;5176;42.622;25.386;2023-05-23T08:40:50;96929.09;;;23.62;52.02
9439;BME280;5176;42.622;25.386;2023-05-23T08:43:18;96918.41;;;23.48;54.73
9439;BME280;5176;42.622;25.386;2023-05-23T08:45:46;96920.69;;;23.65;50.49
9439;BME280;5176;42.622;25.386;2023-05-23T08:48:18;96923.56;;;23.64;49.62
9439;BME280;5176;42.622;25.386;2023-05-23T08:50:46;96918.09;;;23.72;49.16
9439;BME280;5176;42.622;25.386;2023-05-23T08:53:15;96929.22;;;23.90;50.00
9439;BME280;5176;42.622;25.386;2023-05-23T08:55:45;96932.47;;;24.07;47.59
9439;BME280;5176;42.622;25.386;2023-05-23T08:58:14;96933.13;;;24.31;49.09
9439;BME280;5176;42.622;25.386;2023-05-23T09:00:42;96922.56;;;24.23;49.32
9439;BME280;5176;42.622;25.386;2023-05-23T09:03:09;96927.41;;;24.34;48.12
9439;BME280;5176;42.622;25.386;2023-05-23T09:05:37;96931.78;;;24.35;49.40
9439;BME280;5176;42.622;25.386;2023-05-23T09:08:05;96927.59;;;24.54;47.87
9439;BME280;5176;42.622;25.386;2023-05-23T09:10:33;96935.06;;;24.58;47.07
9439;BME280;5176;42.622;25.386;2023-05-23T09:13:00;96932.84;;;24.62;44.65
9439;BME280;5176;42.622;25.386;2023-05-23T09:15:30;96939.03;;;24.90;47.80
9439;BME280;5176;42.622;25.386;2023-05-23T09:17:59;96931.47;;;24.72;44.93
9439;BME280;5176;42.622;25.386;2023-05-23T09:20:28;96921.44;;;24.81;47.09
9439;BME280;5176;42.622;25.386;2023-05-23T09:22:55;96925.63;;;24.90;43.24
9439;BME280;5176;42.622;25.386;2023-05-23T09:25:22;96915.38;;;24.72;43.88
9439;BME280;5176;42.622;25.386;2023-05-23T09:27:51;96918.84;;;24.24;45.75
9439;BME280;5176;42.622;25.386;2023-05-23T09:30:19;96917.59;;;24.62;46.37
9439;BME280;5176;42.622;25.386;2023-05-23T09:32:58;96916.28;;;25.08;46.60
9439;BME280;5176;42.622;25.386;2023-05-23T09:35:27;96923.72;;;25.12;49.08
9439;BME280;5176;42.622;25.386;2023-05-23T09:37:56;96920.16;;;25.40;48.83
9439;BME280;5176;42.622;25.386;2023-05-23T09:40:29;96925.97;;;25.43;43.82
9439;BME280;5176;42.622;25.386;2023-05-23T09:43:02;96917.81;;;25.65;44.63
9439;BME280;5176;42.622;25.386;2023-05-23T09:45:31;96886.22;;;25.67;43.39
9439;BME280;5176;42.622;25.386;2023-05-23T09:48:00;96918.84;;;26.31;45.01
9439;BME280;5176;42.622;25.386;2023-05-23T09:50:30;96922.84;;;26.49;43.63
9439;BME280;5176;42.622;25.386;2023-05-23T09:52:59;96934.00;;;26.66;45.46
9439;BME280;5176;42.622;25.386;2023-05-23T09:55:26;96926.53;;;26.48;41.57
9439;BME280;5176;42.622;25.386;2023-05-23T09:57:54;96930.28;;;25.79;41.76
9439;BME280;5176;42.622;25.386;2023-05-23T10:00:23;96918.13;;;25.07;42.56
9439;BME280;5176;42.622;25.386;2023-05-23T10:02:55;96911.81;;;25.15;42.49
9439;BME280;5176;42.622;25.386;2023-05-23T10:05:37;96916.22;;;25.01;42.64
9439;BME280;5176;42.622;25.386;2023-05-23T10:08:07;96918.94;;;24.80;42.82
9439;BME280;5176;42.622;25.386;2023-05-23T10:11:08;96915.88;;;24.33;40.87
9439;BME280;5176;42.622;25.386;2023-05-23T10:13:51;96922.22;;;24.75;43.31
9439;BME280;5176;42.622;25.386;2023-05-23T10:16:24;96910.28;;;24.78;40.58
9439;BME280;5176;42.622;25.386;2023-05-23T10:18:56;96910.63;;;24.96;41.42
9439;BME280;5176;42.622;25.386;2023-05-23T10:21:31;96915.81;;;25.32;45.02
9439;BME280;5176;42.622;25.386;2023-05-23T10:24:02;96911.81;;;25.63;40.96
9439;BME280;5176;42.622;25.386;2023-05-23T10:26:30;96912.09;;;25.74;41.00
9439;BME280;5176;42.622;25.386;2023-05-23T10:28:58;96904.31;;;25.45;40.35
9439;BME280;5176;42.622;25.386;2023-05-23T10:31:27;96900.88;;;25.16;42.35
9439;BME280;5176;42.622;25.386;2023-05-23T10:33:59;96907.16;;;25.37;41.74
9439;BME280;5176;42.622;25.386;2023-05-23T10:36:39;96903.31;;;25.52;42.95
9439;BME280;5176;42.622;25.386;2023-05-23T10:39:15;96901.59;;;25.79;44.31
9439;BME280;5176;42.622;25.386;2023-05-23T10:41:50;96899.78;;;26.00;40.69
9439;BME280;5176;42.622;25.386;2023-05-23T10:44:24;96897.56;;;26.17;41.98
9439;BME280;5176;42.622;25.386;2023-05-23T10:46:54;96902.94;;;26.23;40.32
9439;BME280;5176;42.622;25.386;2023-05-23T10:49:36;96897.34;;;26.25;38.19
9439;BME280;5176;42.622;25.386;2023-05-23T10:52:07;96906.66;;;26.22;37.23
9439;BME280;5176;42.622;25.386;2023-05-23T10:54:35;96910.56;;;26.33;38.90
9439;BME280;5176;42.622;25.386;2023-05-23T10:57:03;96904.16;;;26.34;39.52
9439;BME280;5176;42.622;25.386;2023-05-23T10:59:30;96903.16;;;26.35;41.71
9439;BME280;5176;42.622;25.386;2023-05-23T11:01:59;96892.41;;;26.22;40.57
9439;BME280;5176;42.622;25.386;2023-05-23T11:04:28;96900.50;;;26.42;40.10
9439;BME280;5176;42.622;25.386;2023-05-23T11:06:55;96895.50;;;26.32;40.47
9439;BME280;5176;42.622;25.386;2023-05-23T11:09:24;96897.13;;;26.13;40.54
9439;BME280;5176;42.622;25.386;2023-05-23T11:11:55;96900.84;;;25.51;39.91
9439;BME280;5176;42.622;25.386;2023-05-23T11:14:52;96904.53;;;25.50;41.82
9439;BME280;5176;42.622;25.386;2023-05-23T11:17:30;96907.22;;;25.50;40.39
9439;BME280;5176;42.622;25.386;2023-05-23T11:19:59;96905.94;;;25.39;42.08
9439;BME280;5176;42.622;25.386;2023-05-23T11:22:30;96899.66;;;25.67;41.56
9439;BME280;5176;42.622;25.386;2023-05-23T11:25:05;96900.97;;;25.84;41.21
9439;BME280;5176;42.622;25.386;2023-05-23T11:27:35;96905.78;;;26.02;38.39
9439;BME280;5176;42.622;25.386;2023-05-23T11:30:05;96907.81;;;25.93;40.37
9439;BME280;5176;42.622;25.386;2023-05-23T11:32:33;96908.34;;;25.69;39.65
9439;BME280;5176;42.622;25.386;2023-05-23T11:35:02;96906.13;;;25.79;41.51
9439;BME280;5176;42.622;25.386;2023-05-23T11:37:31;96904.25;;;25.73;41.67
9439;BME280;5176;42.622;25.386;2023-05-23T11:40:30;96900.06;;;25.64;43.86
9439;BME280;5176;42.622;25.386;2023-05-23T11:42:58;96898.44;;;25.69;43.85
9439;BME280;5176;42.622;25.386;2023-05-23T11:45:27;96896.66;;;25.83;43.45
9439;BME280;5176;42.622;25.386;2023-05-23T11:47:55;96898.38;;;26.11;43.31
9439;BME280;5176;42.622;25.386;2023-05-23T11:50:22;96891.97;;;26.31;40.65
9439;BME280;5176;42.622;25.386;2023-05-23T11:52:50;96895.97;;;26.42;38.17
9439;BME280;5176;42.622;25.386;2023-05-23T11:55:20;96894.94;;;26.43;38.20
9439;BME280;5176;42.622;25.386;2023-05-23T11:57:48;96894.47;;;26.33;37.64
9439;BME280;5176;42.622;25.386;2023-05-23T12:00:17;96891.38;;;26.23;39.54
9439;BME280;5176;42.622;25.386;2023-05-23T12:02:45;96887.41;;;26.12;41.00
9439;BME280;5176;42.622;25.386;2023-05-23T12:05:14;96878.50;;;26.05;42.25
9439;BME280;5176;42.622;25.386;2023-05-23T12:07:41;96886.63;;;26.38;41.05
9439;BME280;5176;42.622;25.386;2023-05-23T12:10:09;96888.50;;;26.51;41.03
9439;BME280;5176;42.622;25.386;2023-05-23T12:12:41;96894.50;;;26.53;39.21
9439;BME280;5176;42.622;25.386;2023-05-23T12:15:10;96894.28;;;26.41;39.83
9439;BME280;5176;42.622;25.386;2023-05-23T12:17:38;96887.31;;;25.72;38.75
9439;BME280;5176;42.622;25.386;2023-05-23T12:20:06;96891.31;;;25.90;38.48
9439;BME280;5176;42.622;25.386;2023-05-23T12:22:34;96887.56;;;25.84;39.00
9439;BME280;5176;42.622;25.386;2023-05-23T12:25:01;96880.97;;;25.93;40.98
9439;BME280;5176;42.622;25.386;2023-05-23T12:27:30;96888.16;;;25.79;41.79
9439;BME280;5176;42.622;25.386;2023-05-23T12:30:06;96882.09;;;25.64;40.11
9439;BME280;5176;42.622;25.386;2023-05-23T12:32:38;96873.03;;;25.72;39.30
9439;BME280;5176;42.622;25.386;2023-05-23T12:35:07;96876.41;;;25.94;39.51
9439;BME280;5176;42.622;25.386;2023-05-23T12:37:38;96848.34;;;25.90;40.96
9439;BME280;5176;42.622;25.386;2023-05-23T12:40:15;96868.00;;;26.10;41.16
9439;BME280;5176;42.622;25.386;2023-05-23T12:42:45;96872.94;;;26.06;40.56
9439;BME280;5176;42.622;25.386;2023-05-23T12:45:14;96872.34;;;26.24;41.80
9439;BME280;5176;42.622;25.386;2023-05-23T12:47:42;96867.19;;;26.36;41.58
9439;BME280;5176;42.622;25.386;2023-05-23T12:50:10;96869.22;;;26.27;39.22
9439;BME280;5176;42.622;25.386;2023-05-23T12:52:38;96869.38;;;25.79;40.01
9439;BME280;5176;42.622;25.386;2023-05-23T12:55:06;96868.22;;;24.29;38.11
9439;BME280;5176;42.622;25.386;2023-05-23T12:57:34;96869.75;;;23.59;38.93
9439;BME280;5176;42.622;25.386;2023-05-23T13:00:01;96871.38;;;23.60;40.96
9439;BME280;5176;42.622;25.386;2023-05-23T13:02:30;96857.97;;;23.68;40.80
9439;BME280;5176;42.622;25.386;2023-05-23T13:04:58;96868.41;;;23.84;40.21
9439;BME280;5176;42.622;25.386;2023-05-23T13:07:25;96872.44;;;24.16;41.20
9439;BME280;5176;42.622;25.386;2023-05-23T13:09:53;96860.69;;;24.39;39.62
9439;BME280;5176;42.622;25.386;2023-05-23T13:12:20;96862.75;;;24.65;39.75
9439;BME280;5176;42.622;25.386;2023-05-23T13:14:47;96863.72;;;24.85;39.21
9439;BME280;5176;42.622;25.386;2023-05-23T13:17:15;96847.84;;;24.84;38.21